KBEH/BEH METAR and TAF weather

Enter ICAO airport designator
Station Type Date Time Source
KBEH METAR 2021/09/25 12:53 UTC NOAA

KBEH 251253Z AUTO 31008KT 10SM SCT025 15/09 A2999 RMK AO2 SLP152 T01500094


Station Type Date Time Source
KBEH Decoded METAR 2021/09/25 12:53 UTC NOAA

SOUTHWEST MICHIGAN REGIONAL, MI, United States (KBEH) 42-08N 86-25W 191M
Sep 25, 2021 - 08:53 AM EDT / 2021.09.25 1253 UTC
Wind: from the NW (310 degrees) at 9 MPH (8 KT):0
Visibility: 10 mile(s):0
Sky conditions: partly cloudy
Temperature: 59.0 F (15.0 C)
Dew Point: 48.9 F (9.4 C)
Relative Humidity: 69%
Pressure (altimeter): 29.99 in. Hg (1015 hPa)
ob: KBEH 251253Z AUTO 31008KT 10SM SCT025 15/09 A2999 RMK AO2 SLP152 T01500094
cycle: 13

Station Type Date Time Source
KBEH TAF UTC NOAA

Error!

Example: see airport list